sensor_id;sensor_type;location;lat;lon;timestamp;pressure;altitude;pressure_sealevel;temperature;humidity
47522;BME280;32291;52.010;4.446;2023-06-26T00:00:57;76909.00;;;-144.67;80.10
47522;BME280;32291;52.010;4.446;2023-06-26T00:01:58;76904.75;;;-144.67;80.48
47522;BME280;32291;52.010;4.446;2023-06-26T00:03:00;76915.44;;;-144.67;80.84
47522;BME280;32291;52.010;4.446;2023-06-26T00:04:04;76921.84;;;-144.67;81.26
47522;BME280;32291;52.010;4.446;2023-06-26T00:05:08;76924.00;;;-144.67;81.54
47522;BME280;32291;52.010;4.446;2023-06-26T00:06:10;76926.13;;;-144.67;81.97
47522;BME280;32291;52.010;4.446;2023-06-26T00:07:11;76938.97;;;-144.67;81.92
47522;BME280;32291;52.010;4.446;2023-06-26T00:08:13;76934.69;;;-144.67;82.56
47522;BME280;32291;52.010;4.446;2023-06-26T00:09:14;76943.25;;;-144.67;82.84
47522;BME280;32291;52.010;4.446;2023-06-26T00:10:17;76951.81;;;-144.67;83.30
47522;BME280;32291;52.010;4.446;2023-06-26T00:11:20;76960.38;;;-144.67;83.72
47522;BME280;32291;52.010;4.446;2023-06-26T00:12:24;76971.09;;;-144.67;84.02
47522;BME280;32291;52.010;4.446;2023-06-26T00:13:26;76977.50;;;-144.67;84.69
47522;BME280;32291;52.010;4.446;2023-06-26T00:14:28;76973.22;;;-144.67;84.98
47522;BME280;32291;52.010;4.446;2023-06-26T00:15:32;76977.50;;;-144.67;85.27
47522;BME280;32291;52.010;4.446;2023-06-26T00:16:34;76990.34;;;-144.67;85.52
47522;BME280;32291;52.010;4.446;2023-06-26T00:17:36;76986.06;;;-144.67;85.88
47522;BME280;32291;52.010;4.446;2023-06-26T00:18:38;76990.34;;;-144.67;86.01
47522;BME280;32291;52.010;4.446;2023-06-26T00:19:39;77011.75;;;-144.67;86.25
47522;BME280;32291;52.010;4.446;2023-06-26T00:20:41;77020.31;;;-144.67;86.95
47522;BME280;32291;52.010;4.446;2023-06-26T00:21:43;77020.31;;;-144.67;87.23
47522;BME280;32291;52.010;4.446;2023-06-26T00:22:47;77033.16;;;-144.67;87.95
47522;BME280;32291;52.010;4.446;2023-06-26T00:23:52;77037.44;;;-144.67;88.20
47522;BME280;32291;52.010;4.446;2023-06-26T00:24:53;77037.44;;;-144.67;88.66
47522;BME280;32291;52.010;4.446;2023-06-26T00:25:57;77041.72;;;-144.67;89.06
47522;BME280;32291;52.010;4.446;2023-06-26T00:26:59;77041.72;;;-144.67;89.39
47522;BME280;32291;52.010;4.446;2023-06-26T00:28:01;77054.56;;;-144.67;90.08
47522;BME280;32291;52.010;4.446;2023-06-26T00:29:02;77063.09;;;-144.67;90.54
47522;BME280;32291;52.010;4.446;2023-06-26T00:30:04;77069.53;;;-144.67;90.80
47522;BME280;32291;52.010;4.446;2023-06-26T00:31:09;77065.25;;;-144.67;91.28
47522;BME280;32291;52.010;4.446;2023-06-26T00:32:10;77067.38;;;-144.67;91.80
47522;BME280;32291;52.010;4.446;2023-06-26T00:33:12;77063.09;;;-144.67;92.44
47522;BME280;32291;52.010;4.446;2023-06-26T00:34:13;77071.66;;;-144.67;92.80
47522;BME280;32291;52.010;4.446;2023-06-26T00:35:16;77084.50;;;-144.67;93.98
47522;BME280;32291;52.010;4.446;2023-06-26T00:36:18;77088.78;;;-144.67;94.44
47522;BME280;32291;52.010;4.446;2023-06-26T00:37:20;77084.50;;;-144.67;95.38
47522;BME280;32291;52.010;4.446;2023-06-26T00:38:22;77086.66;;;-144.67;96.00
47522;BME280;32291;52.010;4.446;2023-06-26T00:39:24;77099.50;;;-144.67;96.76
47522;BME280;32291;52.010;4.446;2023-06-26T00:40:27;77110.19;;;-144.67;97.54
47522;BME280;32291;52.010;4.446;2023-06-26T00:41:29;77114.47;;;-144.67;97.96
47522;BME280;32291;52.010;4.446;2023-06-26T00:42:30;77110.19;;;-144.67;99.03
47522;BME280;32291;52.010;4.446;2023-06-26T00:43:34;77114.47;;;-144.67;99.47
47522;BME280;32291;52.010;4.446;2023-06-26T00:44:39;77125.19;;;-144.67;100.00
47522;BME280;32291;52.010;4.446;2023-06-26T00:45:40;77125.19;;;-144.67;100.00
47522;BME280;32291;52.010;4.446;2023-06-26T00:46:42;77131.59;;;-144.67;100.00
47522;BME280;32291;52.010;4.446;2023-06-26T00:47:43;77135.88;;;-144.67;100.00
47522;BME280;32291;52.010;4.446;2023-06-26T00:48:48;77135.88;;;-144.67;100.00
47522;BME280;32291;52.010;4.446;2023-06-26T00:49:51;77133.72;;;-144.67;100.00
47522;BME280;32291;52.010;4.446;2023-06-26T00:50:53;77142.28;;;-144.67;100.00
47522;BME280;32291;52.010;4.446;2023-06-26T00:51:56;77150.84;;;-144.67;100.00
47522;BME280;32291;52.010;4.446;2023-06-26T00:52:57;77144.44;;;-144.67;100.00
47522;BME280;32291;52.010;4.446;2023-06-26T00:54:05;77144.44;;;-144.67;100.00
47522;BME280;32291;52.010;4.446;2023-06-26T00:55:09;77148.72;;;-144.67;100.00
47522;BME280;32291;52.010;4.446;2023-06-26T00:56:17;77157.28;;;-144.67;100.00
47522;BME280;32291;52.010;4.446;2023-06-26T00:57:21;77161.56;;;-144.67;100.00
47522;BME280;32291;52.010;4.446;2023-06-26T00:58:24;77172.25;;;-144.67;100.00
47522;BME280;32291;52.010;4.446;2023-06-26T00:59:26;77172.25;;;-144.67;100.00
47522;BME280;32291;52.010;4.446;2023-06-26T01:00:28;77172.25;;;-144.67;100.00
47522;BME280;32291;52.010;4.446;2023-06-26T01:01:30;77167.97;;;-144.67;100.00
47522;BME280;32291;52.010;4.446;2023-06-26T01:02:32;77178.69;;;-144.67;100.00
47522;BME280;32291;52.010;4.446;2023-06-26T01:03:35;77176.53;;;-144.67;100.00
47522;BME280;32291;52.010;4.446;2023-06-26T01:04:38;77178.69;;;-144.67;100.00
47522;BME280;32291;52.010;4.446;2023-06-26T01:05:48;77170.13;;;-144.67;100.00
47522;BME280;32291;52.010;4.446;2023-06-26T01:06:50;77178.69;;;-144.67;100.00
47522;BME280;32291;52.010;4.446;2023-06-26T01:07:54;77178.69;;;-144.67;100.00
47522;BME280;32291;52.010;4.446;2023-06-26T01:08:59;77185.09;;;-144.67;100.00
47522;BME280;32291;52.010;4.446;2023-06-26T01:10:04;77172.25;;;-144.67;100.00
47522;BME280;32291;52.010;4.446;2023-06-26T01:11:09;77161.56;;;-144.67;100.00
47522;BME280;32291;52.010;4.446;2023-06-26T01:12:14;77170.13;;;-144.67;100.00
47522;BME280;32291;52.010;4.446;2023-06-26T01:13:17;77170.13;;;-144.67;100.00
47522;BME280;32291;52.010;4.446;2023-06-26T01:14:18;77178.69;;;-144.67;100.00
47522;BME280;32291;52.010;4.446;2023-06-26T01:15:21;77182.97;;;-144.67;100.00
47522;BME280;32291;52.010;4.446;2023-06-26T01:16:26;77182.97;;;-144.67;100.00
47522;BME280;32291;52.010;4.446;2023-06-26T01:17:31;77185.09;;;-144.67;100.00
47522;BME280;32291;52.010;4.446;2023-06-26T01:18:40;77191.53;;;-144.67;100.00
47522;BME280;32291;52.010;4.446;2023-06-26T01:19:44;77191.53;;;-144.67;100.00
47522;BME280;32291;52.010;4.446;2023-06-26T01:20:46;77204.38;;;-144.67;100.00
47522;BME280;32291;52.010;4.446;2023-06-26T01:21:51;77187.25;;;-144.67;100.00
47522;BME280;32291;52.010;4.446;2023-06-26T01:25:29;77174.41;;;-144.67;100.00
47522;BME280;32291;52.010;4.446;2023-06-26T01:26:41;77187.25;;;-144.67;100.00
47522;BME280;32291;52.010;4.446;2023-06-26T01:27:53;77182.97;;;-144.67;100.00
47522;BME280;32291;52.010;4.446;2023-06-26T01:28:58;77178.69;;;-144.67;100.00
47522;BME280;32291;52.010;4.446;2023-06-26T01:30:03;77170.13;;;-144.67;100.00
47522;BME280;32291;52.010;4.446;2023-06-26T01:31:10;77165.84;;;-144.67;100.00
47522;BME280;32291;52.010;4.446;2023-06-26T01:32:12;77165.84;;;-144.67;100.00
47522;BME280;32291;52.010;4.446;2023-06-26T01:33:14;77178.69;;;-144.67;100.00
47522;BME280;32291;52.010;4.446;2023-06-26T01:34:17;77165.84;;;-144.67;100.00
47522;BME280;32291;52.010;4.446;2023-06-26T01:35:20;77174.41;;;-144.67;100.00
47522;BME280;32291;52.010;4.446;2023-06-26T01:36:22;77178.69;;;-144.67;100.00
47522;BME280;32291;52.010;4.446;2023-06-26T01:37:24;77167.97;;;-144.67;100.00
47522;BME280;32291;52.010;4.446;2023-06-26T01:38:25;77178.69;;;-144.67;100.00
47522;BME280;32291;52.010;4.446;2023-06-26T01:39:27;77182.97;;;-144.67;100.00
47522;BME280;32291;52.010;4.446;2023-06-26T01:40:28;77174.41;;;-144.67;100.00
47522;BME280;32291;52.010;4.446;2023-06-26T01:41:32;77178.69;;;-144.67;100.00
47522;BME280;32291;52.010;4.446;2023-06-26T01:42:35;77176.53;;;-144.67;100.00
47522;BME280;32291;52.010;4.446;2023-06-26T01:44:29;77182.97;;;-144.67;100.00
47522;BME280;32291;52.010;4.446;2023-06-26T01:45:34;77178.69;;;-144.67;100.00
47522;BME280;32291;52.010;4.446;2023-06-26T01:47:03;77182.97;;;-144.67;100.00
47522;BME280;32291;52.010;4.446;2023-06-26T01:48:09;77187.25;;;-144.67;100.00
47522;BME280;32291;52.010;4.446;2023-06-26T01:49:57;77193.66;;;-144.67;100.00
47522;BME280;32291;52.010;4.446;2023-06-26T01:51:01;77195.81;;;-144.67;100.00
47522;BME280;32291;52.010;4.446;2023-06-26T01:53:24;77197.94;;;-144.67;100.00
47522;BME280;32291;52.010;4.446;2023-06-26T01:54:33;77193.66;;;-144.67;100.00
47522;BME280;32291;52.010;4.446;2023-06-26T01:55:59;77195.81;;;-144.67;100.00
47522;BME280;32291;52.010;4.446;2023-06-26T01:57:04;77189.38;;;-144.67;100.00
47522;BME280;32291;52.010;4.446;2023-06-26T01:58:09;77195.81;;;-144.67;100.00
47522;BME280;32291;52.010;4.446;2023-06-26T01:59:16;77200.09;;;-144.67;100.00
47522;BME280;32291;52.010;4.446;2023-06-26T02:00:20;77200.09;;;-144.67;100.00
47522;BME280;32291;52.010;4.446;2023-06-26T02:01:22;77217.22;;;-144.67;100.00
47522;BME280;32291;52.010;4.446;2023-06-26T02:02:24;77208.66;;;-144.67;100.00
47522;BME280;32291;52.010;4.446;2023-06-26T02:03:26;77204.38;;;-144.67;100.00
47522;BME280;32291;52.010;4.446;2023-06-26T02:04:28;77212.94;;;-144.67;100.00
47522;BME280;32291;52.010;4.446;2023-06-26T02:05:30;77206.50;;;-144.67;100.00
47522;BME280;32291;52.010;4.446;2023-06-26T02:06:34;77217.22;;;-144.67;100.00
47522;BME280;32291;52.010;4.446;2023-06-26T02:07:35;77212.94;;;-144.67;100.00
47522;BME280;32291;52.010;4.446;2023-06-26T02:08:40;77212.94;;;-144.67;100.00
47522;BME280;32291;52.010;4.446;2023-06-26T02:09:45;77221.50;;;-144.67;100.00
47522;BME280;32291;52.010;4.446;2023-06-26T02:10:49;77221.50;;;-144.67;100.00
47522;BME280;32291;52.010;4.446;2023-06-26T02:11:50;77212.94;;;-144.67;100.00
47522;BME280;32291;52.010;4.446;2023-06-26T02:12:52;77212.94;;;-144.67;100.00
47522;BME280;32291;52.010;4.446;2023-06-26T02:13:54;77208.66;;;-144.67;100.00
47522;BME280;32291;52.010;4.446;2023-06-26T02:14:57;77217.22;;;-144.67;100.00
47522;BME280;32291;52.010;4.446;2023-06-26T02:15:58;77221.50;;;-144.67;100.00
47522;BME280;32291;52.010;4.446;2023-06-26T02:17:01;77225.78;;;-144.67;100.00
47522;BME280;32291;52.010;4.446;2023-06-26T02:18:05;77217.22;;;-144.67;100.00
47522;BME280;32291;52.010;4.446;2023-06-26T02:19:10;77221.50;;;-144.67;100.00
47522;BME280;32291;52.010;4.446;2023-06-26T02:20:14;77230.06;;;-144.67;100.00
47522;BME280;32291;52.010;4.446;2023-06-26T02:21:16;77236.47;;;-144.67;100.00
47522;BME280;32291;52.010;4.446;2023-06-26T02:22:18;77240.75;;;-144.67;100.00
47522;BME280;32291;52.010;4.446;2023-06-26T02:23:19;77249.31;;;-144.67;100.00
47522;BME280;32291;52.010;4.446;2023-06-26T02:24:23;77247.16;;;-144.67;100.00
47522;BME280;32291;52.010;4.446;2023-06-26T02:25:25;77260.00;;;-144.67;100.00
47522;BME280;32291;52.010;4.446;2023-06-26T02:26:27;77253.59;;;-144.67;100.00
47522;BME280;32291;52.010;4.446;2023-06-26T02:27:35;77257.88;;;-144.67;100.00
47522;BME280;32291;52.010;4.446;2023-06-26T02:28:40;77255.72;;;-144.67;100.00
47522;BME280;32291;52.010;4.446;2023-06-26T02:29:42;77255.72;;;-144.67;100.00
47522;BME280;32291;52.010;4.446;2023-06-26T02:30:43;77266.44;;;-144.67;100.00
47522;BME280;32291;52.010;4.446;2023-06-26T02:31:45;77260.00;;;-144.67;100.00
47522;BME280;32291;52.010;4.446;2023-06-26T02:32:48;77268.56;;;-144.67;100.00
47522;BME280;32291;52.010;4.446;2023-06-26T02:33:52;77268.56;;;-144.67;100.00
47522;BME280;32291;52.010;4.446;2023-06-26T02:34:54;77264.28;;;-144.67;100.00
47522;BME280;32291;52.010;4.446;2023-06-26T02:35:55;77268.56;;;-144.67;100.00
47522;BME280;32291;52.010;4.446;2023-06-26T02:36:57;77275.00;;;-144.67;100.00
47522;BME280;32291;52.010;4.446;2023-06-26T02:37:59;77275.00;;;-144.67;100.00
47522;BME280;32291;52.010;4.446;2023-06-26T02:39:04;77294.25;;;-144.67;100.00
47522;BME280;32291;52.010;4.446;2023-06-26T02:40:12;77292.13;;;-144.67;100.00
47522;BME280;32291;52.010;4.446;2023-06-26T02:41:14;77289.97;;;-144.67;100.00
47522;BME280;32291;52.010;4.446;2023-06-26T02:42:16;77294.25;;;-144.67;100.00
47522;BME280;32291;52.010;4.446;2023-06-26T02:43:17;77289.97;;;-144.67;100.00
47522;BME280;32291;52.010;4.446;2023-06-26T02:44:19;77294.25;;;-144.67;100.00
47522;BME280;32291;52.010;4.446;2023-06-26T02:45:20;77307.09;;;-144.67;100.00
47522;BME280;32291;52.010;4.446;2023-06-26T02:46:22;77319.94;;;-144.67;100.00
47522;BME280;32291;52.010;4.446;2023-06-26T02:47:24;77317.81;;;-144.67;100.00
47522;BME280;32291;52.010;4.446;2023-06-26T02:48:25;77322.09;;;-144.67;100.00
47522;BME280;32291;52.010;4.446;2023-06-26T02:49:27;77324.22;;;-144.67;100.00
47522;BME280;32291;52.010;4.446;2023-06-26T02:50:28;77326.38;;;-144.67;100.00
47522;BME280;32291;52.010;4.446;2023-06-26T02:51:33;77328.50;;;-144.67;100.00
47522;BME280;32291;52.010;4.446;2023-06-26T02:52:34;77341.34;;;-144.67;100.00
47522;BME280;32291;52.010;4.446;2023-06-26T02:53:39;77337.06;;;-144.67;100.00
47522;BME280;32291;52.010;4.446;2023-06-26T02:54:42;77343.50;;;-144.67;100.00
47522;BME280;32291;52.010;4.446;2023-06-26T02:55:44;77345.63;;;-144.67;100.00
47522;BME280;32291;52.010;4.446;2023-06-26T02:56:48;77347.78;;;-144.67;100.00
47522;BME280;32291;52.010;4.446;2023-06-26T02:57:50;77356.34;;;-144.67;100.00
47522;BME280;32291;52.010;4.446;2023-06-26T02:58:51;77362.75;;;-144.67;100.00
47522;BME280;32291;52.010;4.446;2023-06-26T02:59:58;77371.31;;;-144.67;100.00
47522;BME280;32291;52.010;4.446;2023-06-26T03:00:59;77367.03;;;-144.67;100.00
47522;BME280;32291;52.010;4.446;2023-06-26T03:02:04;77375.59;;;-144.67;100.00
47522;BME280;32291;52.010;4.446;2023-06-26T03:03:09;77375.59;;;-144.67;100.00
47522;BME280;32291;52.010;4.446;2023-06-26T03:04:10;77375.59;;;-144.67;100.00
47522;BME280;32291;52.010;4.446;2023-06-26T03:05:14;77379.88;;;-144.67;100.00
47522;BME280;32291;52.010;4.446;2023-06-26T03:06:16;77386.28;;;-144.67;100.00
47522;BME280;32291;52.010;4.446;2023-06-26T03:07:17;77390.56;;;-144.67;100.00
47522;BME280;32291;52.010;4.446;2023-06-26T03:08:19;77392.72;;;-144.67;100.00
47522;BME280;32291;52.010;4.446;2023-06-26T03:09:21;77401.28;;;-144.67;100.00
47522;BME280;32291;52.010;4.446;2023-06-26T03:10:23;77401.28;;;-144.67;100.00
47522;BME280;32291;52.010;4.446;2023-06-26T03:11:24;77401.28;;;-144.67;100.00
47522;BME280;32291;52.010;4.446;2023-06-26T03:12:26;77405.56;;;-144.67;100.00
47522;BME280;32291;52.010;4.446;2023-06-26T03:13:27;77405.56;;;-144.67;100.00
47522;BME280;32291;52.010;4.446;2023-06-26T03:14:29;77401.28;;;-144.67;100.00
47522;BME280;32291;52.010;4.446;2023-06-26T03:15:33;77397.00;;;-144.67;100.00
47522;BME280;32291;52.010;4.446;2023-06-26T03:16:34;77401.28;;;-144.67;100.00
47522;BME280;32291;52.010;4.446;2023-06-26T03:17:36;77392.72;;;-144.67;100.00
47522;BME280;32291;52.010;4.446;2023-06-26T03:18:41;77394.84;;;-144.67;100.00
47522;BME280;32291;52.010;4.446;2023-06-26T03:19:44;77392.72;;;-144.67;100.00
47522;BME280;32291;52.010;4.446;2023-06-26T03:20:46;77403.41;;;-144.67;100.00
47522;BME280;32291;52.010;4.446;2023-06-26T03:21:47;77407.69;;;-144.67;100.00
47522;BME280;32291;52.010;4.446;2023-06-26T03:22:49;77422.69;;;-144.67;100.00
47522;BME280;32291;52.010;4.446;2023-06-26T03:23:56;77422.69;;;-144.67;100.00
47522;BME280;32291;52.010;4.446;2023-06-26T03:24:57;77418.41;;;-144.67;100.00
47522;BME280;32291;52.010;4.446;2023-06-26T03:25:59;77422.69;;;-144.67;100.00
47522;BME280;32291;52.010;4.446;2023-06-26T03:27:03;77429.09;;;-144.67;100.00
47522;BME280;32291;52.010;4.446;2023-06-26T03:28:16;77439.81;;;-144.67;100.00
47522;BME280;32291;52.010;4.446;2023-06-26T03:29:18;77439.81;;;-144.67;100.00
47522;BME280;32291;52.010;4.446;2023-06-26T03:30:19;77439.81;;;-144.67;100.00
47522;BME280;32291;52.010;4.446;2023-06-26T03:31:21;77439.81;;;-144.67;100.00
47522;BME280;32291;52.010;4.446;2023-06-26T03:32:23;77437.66;;;-144.67;100.00
47522;BME280;32291;52.010;4.446;2023-06-26T03:33:28;77444.09;;;-144.67;100.00
47522;BME280;32291;52.010;4.446;2023-06-26T03:34:32;77435.53;;;-144.67;100.00
47522;BME280;32291;52.010;4.446;2023-06-26T03:35:34;77448.38;;;-144.67;100.00
47522;BME280;32291;52.010;4.446;2023-06-26T03:36:44;77439.81;;;-144.67;100.00
47522;BME280;32291;52.010;4.446;2023-06-26T03:37:49;77454.78;;;-144.67;100.00
47522;BME280;32291;52.010;4.446;2023-06-26T03:38:51;77456.94;;;-144.67;100.00
47522;BME280;32291;52.010;4.446;2023-06-26T03:39:58;77456.94;;;-144.67;100.00
47522;BME280;32291;52.010;4.446;2023-06-26T03:41:05;77461.22;;;-144.67;100.00
47522;BME280;32291;52.010;4.446;2023-06-26T03:42:13;77452.66;;;-144.67;100.00
47522;BME280;32291;52.010;4.446;2023-06-26T03:43:15;77452.66;;;-144.67;100.00
47522;BME280;32291;52.010;4.446;2023-06-26T03:44:18;77456.94;;;-144.67;100.00
47522;BME280;32291;52.010;4.446;2023-06-26T03:45:20;77465.50;;;-144.67;100.00
47522;BME280;32291;52.010;4.446;2023-06-26T03:46:22;77461.22;;;-144.67;100.00
47522;BME280;32291;52.010;4.446;2023-06-26T03:47:24;77459.06;;;-144.67;100.00
47522;BME280;32291;52.010;4.446;2023-06-26T03:48:26;77469.78;;;-144.67;100.00
47522;BME280;32291;52.010;4.446;2023-06-26T03:49:29;77465.50;;;-144.67;100.00
47522;BME280;32291;52.010;4.446;2023-06-26T03:50:39;77461.22;;;-144.67;100.00
47522;BME280;32291;52.010;4.446;2023-06-26T03:51:44;77461.22;;;-144.67;100.00
47522;BME280;32291;52.010;4.446;2023-06-26T03:52:46;77471.91;;;-144.67;100.00
47522;BME280;32291;52.010;4.446;2023-06-26T03:53:48;77476.19;;;-144.67;100.00
47522;BME280;32291;52.010;4.446;2023-06-26T03:54:50;77471.91;;;-144.67;100.00
47522;BME280;32291;52.010;4.446;2023-06-26T03:55:51;77474.06;;;-144.67;100.00
47522;BME280;32291;52.010;4.446;2023-06-26T03:56:55;77484.75;;;-144.67;100.00
47522;BME280;32291;52.010;4.446;2023-06-26T03:57:57;77478.34;;;-144.67;100.00
47522;BME280;32291;52.010;4.446;2023-06-26T03:58:58;77484.75;;;-144.67;100.00
47522;BME280;32291;52.010;4.446;2023-06-26T04:00:04;77482.63;;;-144.67;100.00
47522;BME280;32291;52.010;4.446;2023-06-26T04:01:18;77480.47;;;-144.67;100.00
47522;BME280;32291;52.010;4.446;2023-06-26T04:02:25;77486.91;;;-144.67;100.00
47522;BME280;32291;52.010;4.446;2023-06-26T04:03:26;77482.63;;;-144.67;100.00
47522;BME280;32291;52.010;4.446;2023-06-26T04:04:28;77482.63;;;-144.67;100.00
47522;BME280;32291;52.010;4.446;2023-06-26T04:05:30;77478.34;;;-144.67;100.00
47522;BME280;32291;52.010;4.446;2023-06-26T04:06:34;77484.75;;;-144.67;100.00
47522;BME280;32291;52.010;4.446;2023-06-26T04:07:37;77486.91;;;-144.67;100.00
47522;BME280;32291;52.010;4.446;2023-06-26T04:08:41;77501.88;;;-144.67;100.00
47522;BME280;32291;52.010;4.446;2023-06-26T04:09:43;77501.88;;;-144.67;100.00
47522;BME280;32291;52.010;4.446;2023-06-26T04:10:44;77512.59;;;-144.67;100.00
47522;BME280;32291;52.010;4.446;2023-06-26T04:11:46;77512.59;;;-144.67;100.00
47522;BME280;32291;52.010;4.446;2023-06-26T04:12:50;77504.03;;;-144.67;100.00
47522;BME280;32291;52.010;4.446;2023-06-26T04:13:51;77504.03;;;-144.67;100.00
47522;BME280;32291;52.010;4.446;2023-06-26T04:14:53;77516.88;;;-144.67;100.00
47522;BME280;32291;52.010;4.446;2023-06-26T04:15:54;77525.44;;;-144.67;100.00
47522;BME280;32291;52.010;4.446;2023-06-26T04:16:56;77519.00;;;-144.67;100.00
47522;BME280;32291;52.010;4.446;2023-06-26T04:17:59;77516.88;;;-144.67;100.00
47522;BME280;32291;52.010;4.446;2023-06-26T04:19:00;77525.44;;;-144.67;100.00
47522;BME280;32291;52.010;4.446;2023-06-26T04:20:04;77525.44;;;-144.67;100.00
47522;BME280;32291;52.010;4.446;2023-06-26T04:21:12;77514.72;;;-144.67;100.00
47522;BME280;32291;52.010;4.446;2023-06-26T04:22:14;77521.16;;;-144.67;100.00
47522;BME280;32291;52.010;4.446;2023-06-26T04:23:16;77519.00;;;-144.67;100.00
47522;BME280;32291;52.010;4.446;2023-06-26T04:24:17;77508.31;;;-144.67;100.00
47522;BME280;32291;52.010;4.446;2023-06-26T04:25:19;77514.72;;;-144.67;100.00
47522;BME280;32291;52.010;4.446;2023-06-26T04:26:20;77512.59;;;-144.67;100.00
47522;BME280;32291;52.010;4.446;2023-06-26T04:27:22;77514.72;;;-144.67;100.00
47522;BME280;32291;52.010;4.446;2023-06-26T04:28:24;77516.88;;;-144.67;100.00
47522;BME280;32291;52.010;4.446;2023-06-26T04:29:26;77516.88;;;-144.67;100.00
47522;BME280;32291;52.010;4.446;2023-06-26T04:30:28;77521.16;;;-144.67;100.00
47522;BME280;32291;52.010;4.446;2023-06-26T04:31:32;77516.88;;;-144.67;100.00
47522;BME280;32291;52.010;4.446;2023-06-26T04:32:33;77508.31;;;-144.67;100.00
47522;BME280;32291;52.010;4.446;2023-06-26T04:33:38;77497.59;;;-144.67;100.00
47522;BME280;32291;52.010;4.446;2023-06-26T04:34:40;77499.75;;;-144.67;100.00
47522;BME280;32291;52.010;4.446;2023-06-26T04:35:44;77504.03;;;-144.67;100.00
47522;BME280;32291;52.010;4.446;2023-06-26T04:36:49;77504.03;;;-144.67;100.00
47522;BME280;32291;52.010;4.446;2023-06-26T04:37:52;77495.47;;;-144.67;100.00
47522;BME280;32291;52.010;4.446;2023-06-26T04:38:55;77508.31;;;-144.67;100.00
47522;BME280;32291;52.010;4.446;2023-06-26T04:39:57;77510.44;;;-144.67;100.00
47522;BME280;32291;52.010;4.446;2023-06-26T04:41:00;77504.03;;;-144.67;100.00
47522;BME280;32291;52.010;4.446;2023-06-26T04:42:03;77499.75;;;-144.67;100.00
47522;BME280;32291;52.010;4.446;2023-06-26T04:43:06;77516.88;;;-144.67;100.00
47522;BME280;32291;52.010;4.446;2023-06-26T04:44:08;77516.88;;;-144.67;100.00
47522;BME280;32291;52.010;4.446;2023-06-26T04:45:10;77516.88;;;-144.67;100.00
47522;BME280;32291;52.010;4.446;2023-06-26T04:46:11;77516.88;;;-144.67;100.00
47522;BME280;32291;52.010;4.446;2023-06-26T04:47:13;77523.28;;;-144.67;100.00
47522;BME280;32291;52.010;4.446;2023-06-26T04:48:16;77523.28;;;-144.67;100.00
47522;BME280;32291;52.010;4.446;2023-06-26T04:49:17;77512.59;;;-144.67;100.00
47522;BME280;32291;52.010;4.446;2023-06-26T04:50:19;77514.72;;;-144.67;100.00
47522;BME280;32291;52.010;4.446;2023-06-26T04:51:21;77516.88;;;-144.67;100.00
47522;BME280;32291;52.010;4.446;2023-06-26T04:52:23;77525.44;;;-144.67;100.00
47522;BME280;32291;52.010;4.446;2023-06-26T04:53:25;77521.16;;;-144.67;100.00
47522;BME280;32291;52.010;4.446;2023-06-26T04:54:27;77525.44;;;-144.67;100.00
47522;BME280;32291;52.010;4.446;2023-06-26T04:55:33;77529.72;;;-144.67;100.00
47522;BME280;32291;52.010;4.446;2023-06-26T04:56:35;77534.00;;;-144.67;100.00
47522;BME280;32291;52.010;4.446;2023-06-26T04:57:39;77529.72;;;-144.67;100.00
47522;BME280;32291;52.010;4.446;2023-06-26T04:58:41;77531.84;;;-144.67;100.00
47522;BME280;32291;52.010;4.446;2023-06-26T04:59:42;77538.28;;;-144.67;100.00
47522;BME280;32291;52.010;4.446;2023-06-26T05:00:47;77540.41;;;-144.67;100.00
47522;BME280;32291;52.010;4.446;2023-06-26T05:01:49;77529.72;;;-144.67;100.00
47522;BME280;32291;52.010;4.446;2023-06-26T05:02:51;77529.72;;;-144.67;100.00
47522;BME280;32291;52.010;4.446;2023-06-26T05:04:02;77527.56;;;-144.67;100.00
47522;BME280;32291;52.010;4.446;2023-06-26T05:05:04;77525.44;;;-144.67;100.00
47522;BME280;32291;52.010;4.446;2023-06-26T05:06:06;77521.16;;;-144.67;100.00
47522;BME280;32291;52.010;4.446;2023-06-26T05:07:10;77538.28;;;-144.67;100.00
47522;BME280;32291;52.010;4.446;2023-06-26T05:08:23;77538.28;;;-144.67;100.00
47522;BME280;32291;52.010;4.446;2023-06-26T05:09:25;77538.28;;;-144.67;100.00
47522;BME280;32291;52.010;4.446;2023-06-26T05:10:27;77546.84;;;-144.67;100.00
47522;BME280;32291;52.010;4.446;2023-06-26T05:11:28;77544.69;;;-144.67;100.00
47522;BME280;32291;52.010;4.446;2023-06-26T05:12:30;77538.28;;;-144.67;100.00
47522;BME280;32291;52.010;4.446;2023-06-26T05:13:34;77538.28;;;-144.67;100.00
47522;BME280;32291;52.010;4.446;2023-06-26T05:14:35;77534.00;;;-144.67;100.00
47522;BME280;32291;52.010;4.446;2023-06-26T05:15:41;77538.28;;;-144.67;100.00
47522;BME280;32291;52.010;4.446;2023-06-26T05:16:43;77534.00;;;-144.67;100.00
47522;BME280;32291;52.010;4.446;2023-06-26T05:17:45;77548.97;;;-144.67;100.00
47522;BME280;32291;52.010;4.446;2023-06-26T05:18:47;77546.84;;;-144.67;100.00
47522;BME280;32291;52.010;4.446;2023-06-26T05:19:49;77534.00;;;-144.67;100.00
47522;BME280;32291;52.010;4.446;2023-06-26T05:20:51;77536.13;;;-144.67;100.00
47522;BME280;32291;52.010;4.446;2023-06-26T05:21:56;77529.72;;;-144.67;100.00
47522;BME280;32291;52.010;4.446;2023-06-26T05:23:04;77519.00;;;-144.67;100.00
47522;BME280;32291;52.010;4.446;2023-06-26T05:24:13;77510.44;;;-144.67;100.00
47522;BME280;32291;52.010;4.446;2023-06-26T05:25:19;77523.28;;;-144.67;100.00
47522;BME280;32291;52.010;4.446;2023-06-26T05:26:25;77516.88;;;-144.67;100.00
47522;BME280;32291;52.010;4.446;2023-06-26T05:27:27;77514.72;;;-144.67;100.00
47522;BME280;32291;52.010;4.446;2023-06-26T05:28:39;77516.88;;;-144.67;100.00